Time;durP1;ratioP1;P1;durP2;ratioP2;P2;SDS_P1;SDS_P2;PMS_P1;PMS_P2;Temp;Humidity;BMP_temperature;BMP_pressure;BME280_temperature;BME280_humidity;BME280_pressure;Samples;Min_cycle;Max_cycle;Signal;HPM_P1;HPM_P2
2021/08/06 00:00:08;;;;;;;1.87;1.77;;;15.80;99.90;;;;;;4975136;28;20431;-67
2021/08/06 00:02:35;;;;;;;1.40;1.30;;;15.80;99.90;;;;;;4975250;28;20204;-67
2021/08/06 00:05:01;;;;;;;1.40;1.30;;;15.70;99.90;;;;;;4975599;28;20427;-67
2021/08/06 00:07:28;;;;;;;1.80;1.70;;;15.70;99.90;;;;;;4975426;28;20458;-67
2021/08/06 00:09:54;;;;;;;1.67;1.57;;;15.70;99.90;;;;;;4975190;28;20195;-67
2021/08/06 00:12:19;;;;;;;1.40;1.30;;;15.70;99.90;;;;;;4975297;28;20467;-67
2021/08/06 00:14:45;;;;;;;2.47;2.37;;;15.70;99.90;;;;;;4975509;28;20180;-67
2021/08/06 00:17:10;;;;;;;1.60;1.50;;;15.70;99.90;;;;;;4975482;28;20180;-67
2021/08/06 00:19:36;;;;;;;1.53;1.43;;;15.70;99.90;;;;;;4975079;28;20254;-67
2021/08/06 00:22:02;;;;;;;1.50;1.40;;;15.70;99.90;;;;;;4975620;28;20204;-67
2021/08/06 00:24:28;;;;;;;2.57;1.90;;;15.70;99.90;;;;;;4975215;28;20560;-67
2021/08/06 00:26:53;;;;;;;1.70;1.60;;;15.70;99.90;;;;;;4973825;28;20177;-67
2021/08/06 00:29:19;;;;;;;2.00;1.90;;;15.70;99.90;;;;;;4974539;28;20187;-67
2021/08/06 00:31:44;;;;;;;1.63;1.53;;;15.60;99.90;;;;;;4974766;28;20576;-67
2021/08/06 00:34:10;;;;;;;2.03;1.93;;;15.60;99.90;;;;;;4974652;28;20191;-67
2021/08/06 00:36:35;;;;;;;1.70;1.60;;;15.60;99.90;;;;;;4955860;29;20252;-67
2021/08/06 00:39:01;;;;;;;1.90;1.80;;;15.60;99.90;;;;;;4955520;29;20654;-67
2021/08/06 00:41:27;;;;;;;1.57;1.47;;;15.50;99.90;;;;;;4955600;28;20196;-67
2021/08/06 00:43:53;;;;;;;1.73;1.63;;;15.50;99.90;;;;;;4974362;28;20444;-67
2021/08/06 00:46:18;;;;;;;1.60;1.50;;;15.50;99.90;;;;;;4974711;28;20717;-67
2021/08/06 00:48:45;;;;;;;1.90;1.77;;;15.50;99.90;;;;;;4974323;28;20263;-67
2021/08/06 00:51:11;;;;;;;2.00;1.43;;;15.40;99.90;;;;;;4974943;28;20227;-67
2021/08/06 00:53:39;;;;;;;1.83;1.73;;;15.40;99.90;;;;;;4974806;28;20450;-67
2021/08/06 00:56:09;;;;;;;1.40;1.30;;;15.40;99.90;;;;;;4974726;28;20676;-67
2021/08/06 00:58:37;;;;;;;1.73;1.60;;;15.40;99.90;;;;;;4974127;28;20432;-67
2021/08/06 01:01:03;;;;;;;1.87;1.77;;;15.40;99.90;;;;;;4974356;28;20829;-67
2021/08/06 01:03:43;;;;;;;2.33;1.70;;;15.30;99.90;;;;;;4974455;28;20455;-67
2021/08/06 01:06:15;;;;;;;1.90;1.80;;;15.30;99.90;;;;;;4955306;29;20193;-67
2021/08/06 01:08:49;;;;;;;1.70;1.60;;;15.30;99.90;;;;;;4971310;28;20435;-67
2021/08/06 01:11:16;;;;;;;2.50;1.40;;;15.30;99.90;;;;;;4973872;28;20459;-67
2021/08/06 01:13:53;;;;;;;2.03;1.87;;;15.30;99.90;;;;;;4974360;28;20412;-67
2021/08/06 01:16:19;;;;;;;1.77;1.67;;;15.20;99.90;;;;;;4955118;29;20483;-67
2021/08/06 01:18:57;;;;;;;3.47;1.50;;;15.20;99.90;;;;;;4954684;29;20437;-67
2021/08/06 01:21:27;;;;;;;1.73;1.63;;;15.20;99.90;;;;;;4954977;28;20447;-67
2021/08/06 01:23:59;;;;;;;2.00;1.87;;;15.20;99.90;;;;;;4974208;28;20999;-67
2021/08/06 01:26:25;;;;;;;2.00;1.90;;;15.10;99.90;;;;;;4974516;28;20825;-67
2021/08/06 01:28:51;;;;;;;3.10;2.90;;;15.10;99.90;;;;;;4973455;28;20424;-67
2021/08/06 01:31:26;;;;;;;2.40;2.20;;;15.10;99.90;;;;;;4973868;28;20458;-67
2021/08/06 01:33:52;;;;;;;2.03;1.93;;;15.10;99.90;;;;;;4973968;28;20418;-67
2021/08/06 01:36:17;;;;;;;2.00;1.90;;;15.10;99.90;;;;;;4956243;28;21024;-67
2021/08/06 01:38:43;;;;;;;2.20;2.00;;;15.10;99.90;;;;;;4973359;28;20184;-67
2021/08/06 01:41:37;;;;;;;2.03;1.87;;;15.10;99.90;;;;;;4973843;28;20215;-67
2021/08/06 01:44:21;;;;;;;2.27;1.87;;;15.10;99.90;;;;;;4973304;28;20436;-67
2021/08/06 01:46:53;;;;;;;2.17;2.07;;;15.20;99.90;;;;;;4973587;28;20947;-67
2021/08/06 01:49:27;;;;;;;3.37;1.80;;;15.20;99.90;;;;;;4954167;29;20451;-67
2021/08/06 01:52:03;;;;;;;8.30;2.50;;;15.20;99.90;;;;;;4954414;28;20488;-67
2021/08/06 01:54:30;;;;;;;1.93;1.83;;;15.20;99.90;;;;;;4954322;28;20424;-67
2021/08/06 01:56:56;;;;;;;2.50;2.03;;;15.20;99.90;;;;;;4963692;28;20439;-67
2021/08/06 01:59:22;;;;;;;3.40;2.10;;;15.30;99.90;;;;;;4973270;28;20423;-67
2021/08/06 02:01:47;;;;;;;2.30;1.83;;;15.40;99.90;;;;;;4973051;28;20467;-67
2021/08/06 02:04:13;;;;;;;2.80;2.60;;;15.40;99.90;;;;;;4973284;28;20438;-67
2021/08/06 02:06:42;;;;;;;3.43;1.80;;;15.50;99.90;;;;;;4973838;28;20548;-67
2021/08/06 02:09:08;;;;;;;1.70;1.60;;;15.50;99.90;;;;;;4973111;28;20164;-67
2021/08/06 02:11:33;;;;;;;2.13;2.00;;;15.60;99.90;;;;;;4972978;28;20470;-67
2021/08/06 02:13:59;;;;;;;2.20;2.00;;;15.60;99.90;;;;;;4973132;28;20231;-67
2021/08/06 02:16:25;;;;;;;1.93;1.83;;;15.60;99.90;;;;;;4973512;28;20176;-67
2021/08/06 02:18:54;;;;;;;3.30;2.43;;;15.70;99.90;;;;;;4973025;28;20606;-67
2021/08/06 02:21:26;;;;;;;2.00;1.90;;;15.60;99.90;;;;;;4973253;28;20944;-67
2021/08/06 02:23:55;;;;;;;2.10;2.00;;;15.70;99.90;;;;;;4973100;28;20424;-67
2021/08/06 02:26:21;;;;;;;1.60;1.50;;;15.70;99.90;;;;;;4973262;28;20431;-67
2021/08/06 02:28:50;;;;;;;3.20;3.00;;;15.70;99.90;;;;;;4972922;28;20403;-67
2021/08/06 02:31:17;;;;;;;2.00;1.90;;;15.70;99.90;;;;;;4973100;28;20446;-67
2021/08/06 02:33:43;;;;;;;2.03;1.93;;;15.70;99.90;;;;;;4973238;28;20415;-67
2021/08/06 02:36:09;;;;;;;3.20;2.20;;;15.70;99.90;;;;;;4973088;28;20411;-67
2021/08/06 02:38:36;;;;;;;3.97;2.00;;;15.70;99.90;;;;;;4972722;28;20451;-67
2021/08/06 02:41:01;;;;;;;1.70;1.60;;;15.80;99.90;;;;;;4973106;28;20619;-67
2021/08/06 02:43:27;;;;;;;5.20;1.80;;;15.80;99.90;;;;;;4972828;28;20467;-67
2021/08/06 02:45:53;;;;;;;2.13;2.03;;;15.80;99.90;;;;;;4973032;28;20172;-67
2021/08/06 02:48:18;;;;;;;2.43;2.27;;;15.80;99.90;;;;;;4972780;28;20180;-67
2021/08/06 02:50:44;;;;;;;2.57;2.37;;;15.90;99.90;;;;;;4974348;28;20618;-67
2021/08/06 02:53:11;;;;;;;2.90;2.00;;;15.90;99.90;;;;;;4976717;28;20250;-67
2021/08/06 02:55:36;;;;;;;2.40;1.83;;;15.90;99.90;;;;;;4976754;28;20423;-67
2021/08/06 02:58:03;;;;;;;1.93;1.83;;;15.90;99.90;;;;;;4976628;28;20539;-67
2021/08/06 03:00:28;;;;;;;1.90;1.80;;;16.00;99.90;;;;;;4976402;28;20176;-67
2021/08/06 03:02:54;;;;;;;2.60;2.10;;;16.00;99.90;;;;;;4976285;28;20459;-67
2021/08/06 03:05:19;;;;;;;2.37;2.10;;;16.00;99.90;;;;;;4959241;28;20168;-67
2021/08/06 03:07:52;;;;;;;2.07;1.97;;;16.00;99.90;;;;;;4976376;28;20326;-67
2021/08/06 03:10:19;;;;;;;8.97;2.33;;;16.00;99.90;;;;;;4975841;28;20176;-67
2021/08/06 03:12:46;;;;;;;2.43;2.23;;;16.00;99.90;;;;;;4976266;28;20482;-67
2021/08/06 03:15:13;;;;;;;2.10;2.00;;;16.10;99.90;;;;;;4975899;28;20442;-67
2021/08/06 03:17:41;;;;;;;2.30;2.00;;;16.10;99.90;;;;;;4976363;28;20527;-67
2021/08/06 03:20:11;;;;;;;2.20;2.10;;;16.10;99.90;;;;;;4975741;28;20435;-67
2021/08/06 03:22:38;;;;;;;2.07;1.97;;;16.10;99.90;;;;;;4976196;28;20467;-67
2021/08/06 03:25:06;;;;;;;2.50;2.30;;;16.10;99.90;;;;;;4976370;28;20415;-67
2021/08/06 03:27:32;;;;;;;2.57;2.30;;;16.10;99.90;;;;;;4976239;28;20449;-67
2021/08/06 03:29:57;;;;;;;2.20;1.90;;;16.00;99.90;;;;;;4975724;28;20435;-67
2021/08/06 03:32:23;;;;;;;3.20;2.10;;;16.00;99.90;;;;;;4975877;28;20247;-67
2021/08/06 03:34:48;;;;;;;2.30;2.20;;;16.00;99.90;;;;;;4975918;28;20558;-67
2021/08/06 03:37:14;;;;;;;5.30;2.57;;;15.90;99.90;;;;;;4976239;28;20176;-67
2021/08/06 03:39:39;;;;;;;3.00;2.73;;;15.90;99.90;;;;;;4975893;28;20519;-67
2021/08/06 03:42:06;;;;;;;2.23;2.10;;;15.80;99.90;;;;;;4975779;28;20231;-67
2021/08/06 03:44:32;;;;;;;2.67;2.47;;;15.80;99.90;;;;;;4975890;28;20601;-68
2021/08/06 03:46:58;;;;;;;2.23;2.13;;;15.80;99.90;;;;;;4975395;28;20518;-68
2021/08/06 03:49:23;;;;;;;3.03;2.57;;;15.80;99.90;;;;;;4975159;28;20179;-68
2021/08/06 03:51:49;;;;;;;3.10;2.30;;;15.80;99.90;;;;;;4975305;28;20200;-68
2021/08/06 03:54:14;;;;;;;2.50;2.30;;;15.80;99.90;;;;;;4975767;28;20551;-68
2021/08/06 03:56:40;;;;;;;2.77;2.40;;;15.70;99.90;;;;;;4975846;28;20183;-68
2021/08/06 03:59:05;;;;;;;3.03;2.70;;;15.80;99.90;;;;;;4975977;28;20176;-68
2021/08/06 04:01:31;;;;;;;2.13;2.03;;;15.80;99.90;;;;;;4975031;28;20203;-68
2021/08/06 04:03:56;;;;;;;2.73;2.53;;;15.70;99.90;;;;;;4975479;28;20168;-68
2021/08/06 04:06:22;;;;;;;2.37;2.17;;;15.70;99.90;;;;;;4975660;28;20200;-68
2021/08/06 04:08:47;;;;;;;2.40;2.20;;;15.80;99.90;;;;;;4975332;28;20180;-68
2021/08/06 04:11:13;;;;;;;2.60;2.40;;;15.80;99.90;;;;;;4975717;28;20708;-68
2021/08/06 04:13:38;;;;;;;5.17;2.50;;;15.70;99.90;;;;;;4957777;28;20673;-68
2021/08/06 04:16:04;;;;;;;2.37;2.27;;;15.70;99.90;;;;;;4974897;28;20250;-66
2021/08/06 04:18:29;;;;;;;3.07;2.87;;;15.60;99.90;;;;;;4974839;28;20976;-68
2021/08/06 04:20:57;;;;;;;3.03;2.77;;;15.50;99.90;;;;;;4975172;28;20212;-67
2021/08/06 04:23:22;;;;;;;3.20;2.67;;;15.50;99.90;;;;;;4974986;28;20252;-67
2021/08/06 04:25:50;;;;;;;2.87;2.67;;;15.50;99.90;;;;;;4974781;28;20949;-67
2021/08/06 04:28:15;;;;;;;2.87;2.67;;;15.40;99.90;;;;;;4974900;28;20206;-67
2021/08/06 04:30:41;;;;;;;3.57;2.43;;;15.50;99.90;;;;;;4974844;28;20455;-68
2021/08/06 04:33:07;;;;;;;3.60;3.00;;;15.50;99.90;;;;;;4975141;28;20184;-68
2021/08/06 04:35:32;;;;;;;3.53;3.23;;;15.50;99.90;;;;;;4975317;28;20177;-67
2021/08/06 04:37:58;;;;;;;3.40;3.10;;;15.50;99.90;;;;;;4974554;28;20176;-67
2021/08/06 04:40:25;;;;;;;2.60;2.40;;;15.50;99.90;;;;;;4974777;28;20172;-67
2021/08/06 04:42:50;;;;;;;2.77;2.57;;;15.50;99.90;;;;;;4974439;28;20474;-67
2021/08/06 04:45:16;;;;;;;9.03;3.40;;;15.50;99.90;;;;;;4974757;28;20838;-67
2021/08/06 04:47:45;;;;;;;3.43;3.13;;;15.50;99.90;;;;;;4974938;28;20185;-67
2021/08/06 04:50:13;;;;;;;3.70;2.80;;;15.60;99.90;;;;;;4974191;28;20202;-67
2021/08/06 04:52:38;;;;;;;4.90;2.60;;;15.60;99.90;;;;;;4974821;28;20804;-68
2021/08/06 04:55:04;;;;;;;3.83;3.43;;;15.60;99.90;;;;;;4974006;28;20439;-67
2021/08/06 04:57:29;;;;;;;4.57;4.17;;;15.50;99.90;;;;;;4974123;28;20532;-68
2021/08/06 04:59:55;;;;;;;3.53;3.20;;;15.30;99.90;;;;;;4974308;28;20179;-67
2021/08/06 05:02:20;;;;;;;4.37;4.07;;;15.20;99.90;;;;;;4974353;28;20208;-67
2021/08/06 05:04:46;;;;;;;5.70;4.73;;;15.20;99.90;;;;;;4974461;28;20169;-67
2021/08/06 05:07:18;;;;;;;4.10;3.80;;;15.10;99.90;;;;;;4974680;28;20183;-68
2021/08/06 05:09:46;;;;;;;4.77;4.10;;;15.10;99.90;;;;;;4973660;28;20180;-67
2021/08/06 05:12:12;;;;;;;4.87;4.47;;;15.00;99.90;;;;;;4972328;28;20566;-67
2021/08/06 05:14:38;;;;;;;9.40;4.30;;;15.00;99.90;;;;;;4973089;28;20490;-66
2021/08/06 05:17:04;;;;;;;4.63;4.23;;;15.00;99.90;;;;;;4973361;28;20840;-67
2021/08/06 05:19:29;;;;;;;4.60;4.30;;;15.00;99.90;;;;;;4973542;28;20183;-68
2021/08/06 05:21:55;;;;;;;6.17;3.63;;;15.00;99.90;;;;;;4973974;28;20208;-67
2021/08/06 05:24:20;;;;;;;4.50;4.00;;;14.90;99.90;;;;;;4973100;28;20180;-68
2021/08/06 05:26:46;;;;;;;4.30;3.90;;;14.90;99.90;;;;;;4973114;28;20642;-68
2021/08/06 05:29:11;;;;;;;4.83;4.27;;;14.90;99.90;;;;;;4973368;28;20177;-68
2021/08/06 05:31:37;;;;;;;5.17;4.67;;;14.90;99.90;;;;;;4974185;28;20294;-67
2021/08/06 05:34:02;;;;;;;7.73;5.23;;;14.90;99.90;;;;;;4973652;28;20185;-68
2021/08/06 05:36:28;;;;;;;4.77;4.10;;;14.90;99.90;;;;;;4973721;28;20646;-68
2021/08/06 05:38:53;;;;;;;5.30;4.53;;;15.00;99.90;;;;;;4973676;28;20223;-68
2021/08/06 05:41:19;;;;;;;4.40;4.10;;;14.90;99.90;;;;;;4973791;28;20255;-68
2021/08/06 05:43:44;;;;;;;4.33;4.03;;;15.00;99.90;;;;;;4973725;28;20212;-68
2021/08/06 05:46:10;;;;;;;4.30;3.90;;;15.00;99.90;;;;;;4973035;28;20187;-68
2021/08/06 05:48:36;;;;;;;5.17;4.47;;;15.00;99.90;;;;;;4973440;28;20580;-67
2021/08/06 05:51:01;;;;;;;5.27;4.77;;;15.00;99.90;;;;;;4973706;28;20271;-68
2021/08/06 05:53:28;;;;;;;6.23;5.27;;;14.90;99.90;;;;;;4973713;28;20177;-68
2021/08/06 05:55:53;;;;;;;5.03;4.53;;;15.00;99.90;;;;;;4973700;28;20184;-67
2021/08/06 05:58:19;;;;;;;4.83;4.47;;;15.00;99.90;;;;;;4973357;28;20435;-68
2021/08/06 06:00:44;;;;;;;5.10;4.20;;;15.10;99.90;;;;;;4973418;28;20207;-67
2021/08/06 06:03:10;;;;;;;5.13;4.00;;;15.10;99.90;;;;;;4973260;28;20681;-68
2021/08/06 06:05:35;;;;;;;6.77;4.77;;;15.10;99.90;;;;;;4973418;28;20169;-67
2021/08/06 06:08:01;;;;;;;5.07;4.67;;;15.10;99.90;;;;;;4973291;28;20408;-68
2021/08/06 06:10:27;;;;;;;4.80;4.50;;;15.20;99.90;;;;;;4972777;28;20184;-68
2021/08/06 06:12:52;;;;;;;5.20;4.80;;;15.20;99.90;;;;;;4972918;28;20560;-67
2021/08/06 06:15:18;;;;;;;5.20;4.70;;;15.20;99.90;;;;;;4973416;28;20164;-67
2021/08/06 06:17:45;;;;;;;4.27;3.87;;;15.30;99.90;;;;;;4973257;28;20187;-67
2021/08/06 06:20:11;;;;;;;6.73;4.57;;;15.40;99.90;;;;;;4973005;28;20459;-67
2021/08/06 06:22:37;;;;;;;5.37;4.97;;;15.40;99.90;;;;;;4973127;28;20546;-68
2021/08/06 06:25:02;;;;;;;5.63;5.13;;;15.40;99.90;;;;;;4973195;28;20502;-68
2021/08/06 06:27:28;;;;;;;6.63;4.37;;;15.50;99.90;;;;;;4973056;28;20219;-67
2021/08/06 06:29:54;;;;;;;5.17;4.67;;;15.50;99.90;;;;;;4955498;28;20235;-68
2021/08/06 06:32:19;;;;;;;3.90;3.60;;;15.60;99.90;;;;;;4955803;28;20195;-67
2021/08/06 06:34:45;;;;;;;5.00;4.60;;;15.70;99.90;;;;;;4973106;28;20176;-68
2021/08/06 06:37:10;;;;;;;4.60;4.20;;;15.70;99.90;;;;;;4973156;28;20238;-68
2021/08/06 06:39:36;;;;;;;4.50;4.20;;;15.70;99.90;;;;;;4972108;28;20180;-67
2021/08/06 06:42:01;;;;;;;4.80;4.43;;;15.70;99.90;;;;;;4973163;28;20243;-67
2021/08/06 06:44:27;;;;;;;4.80;4.40;;;15.70;99.90;;;;;;4973108;28;20164;-68
2021/08/06 06:46:52;;;;;;;4.70;4.30;;;15.70;99.90;;;;;;4972634;28;20239;-68
2021/08/06 06:49:18;;;;;;;5.00;4.30;;;15.80;99.90;;;;;;4972662;28;20307;-69
2021/08/06 06:51:44;;;;;;;3.97;3.67;;;16.00;99.90;;;;;;4972534;28;20218;-70
2021/08/06 06:54:09;;;;;;;3.67;3.37;;;16.30;99.90;;;;;;4972662;28;20226;-69
2021/08/06 06:56:35;;;;;;;6.20;3.00;;;16.50;99.90;;;;;;4972734;28;20179;-69
2021/08/06 06:59:00;;;;;;;5.13;4.73;;;16.90;99.90;;;;;;4972693;28;20173;-68
2021/08/06 07:01:26;;;;;;;3.10;2.90;;;17.30;99.90;;;;;;4972299;28;20200;-68
2021/08/06 07:03:52;;;;;;;2.70;2.30;;;17.70;99.90;;;;;;4972685;28;20236;-68
2021/08/06 07:06:19;;;;;;;3.00;2.60;;;18.00;99.90;;;;;;4972705;28;20267;-68
2021/08/06 07:08:45;;;;;;;2.83;2.63;;;18.00;99.90;;;;;;4972402;28;20177;-67
2021/08/06 07:11:10;;;;;;;2.53;2.30;;;18.00;99.90;;;;;;4972548;28;20455;-65
2021/08/06 07:13:36;;;;;;;2.70;2.50;;;18.20;99.90;;;;;;4972312;28;20208;-65
2021/08/06 07:16:01;;;;;;;2.70;2.10;;;18.20;99.90;;;;;;4972758;28;20176;-66
2021/08/06 07:18:27;;;;;;;2.70;2.50;;;18.20;99.90;;;;;;4972214;28;20646;-66
2021/08/06 07:20:53;;;;;;;2.67;2.47;;;18.20;99.90;;;;;;4971720;28;20619;-66
2021/08/06 07:23:18;;;;;;;2.40;2.20;;;18.10;99.90;;;;;;4972628;28;20208;-66
2021/08/06 07:25:44;;;;;;;2.60;2.40;;;18.20;99.90;;;;;;4972206;28;20655;-67
2021/08/06 07:28:10;;;;;;;2.10;2.00;;;18.20;99.90;;;;;;4971671;28;20168;-66
2021/08/06 07:30:37;;;;;;;2.70;2.50;;;18.20;99.90;;;;;;4972319;28;20173;-65
2021/08/06 07:33:02;;;;;;;3.17;2.97;;;18.20;99.90;;;;;;4972300;28;20187;-66
2021/08/06 07:35:31;;;;;;;1.93;1.83;;;18.30;99.90;;;;;;4972901;28;20427;-65
2021/08/06 07:37:57;;;;;;;3.40;2.00;;;18.30;99.90;;;;;;4976062;28;20168;-65
2021/08/06 07:40:23;;;;;;;2.20;2.10;;;18.10;99.90;;;;;;4975643;28;20434;-66
2021/08/06 07:42:50;;;;;;;2.50;2.30;;;18.10;99.90;;;;;;4975839;28;20466;-65
2021/08/06 07:45:16;;;;;;;5.27;2.30;;;18.10;99.90;;;;;;4975938;28;20255;-66
2021/08/06 07:47:41;;;;;;;2.70;2.50;;;18.20;99.90;;;;;;4976284;28;20547;-65
2021/08/06 07:50:08;;;;;;;4.77;2.93;;;18.00;99.90;;;;;;4975242;28;20188;-64
2021/08/06 07:52:34;;;;;;;3.00;2.80;;;17.90;99.90;;;;;;4975794;28;20188;-65
2021/08/06 07:54:59;;;;;;;6.13;2.80;;;17.90;99.90;;;;;;4975057;28;20442;-65
2021/08/06 07:57:25;;;;;;;4.77;2.90;;;17.80;99.90;;;;;;4975824;28;20207;-66
2021/08/06 07:59:50;;;;;;;4.30;2.50;;;17.40;99.90;;;;;;4974432;28;20191;-66
2021/08/06 08:02:16;;;;;;;3.43;1.87;;;16.90;99.90;;;;;;4975579;28;20619;-67
2021/08/06 08:04:42;;;;;;;4.70;1.80;;;16.40;99.90;;;;;;4975299;28;20174;-66
2021/08/06 08:07:08;;;;;;;3.93;1.63;;;16.10;99.90;;;;;;4975579;28;20502;-66
2021/08/06 08:09:33;;;;;;;2.17;1.73;;;15.90;99.90;;;;;;4974751;28;20297;-66
2021/08/06 08:11:59;;;;;;;2.00;1.90;;;15.80;99.90;;;;;;4974282;28;20228;-66
2021/08/06 08:14:24;;;;;;;1.83;1.73;;;15.70;99.90;;;;;;4975558;28;20181;-66
2021/08/06 08:16:50;;;;;;;4.30;2.37;;;15.80;99.90;;;;;;4975216;28;20662;-66
2021/08/06 08:19:18;;;;;;;2.50;1.87;;;15.80;99.90;;;;;;4974598;28;20176;-65
2021/08/06 08:21:43;;;;;;;2.60;1.50;;;16.10;99.90;;;;;;4975180;28;20199;-65
2021/08/06 08:24:09;;;;;;;2.00;1.90;;;16.60;99.90;;;;;;4975048;28;20422;-66
2021/08/06 08:26:35;;;;;;;2.10;1.90;;;16.90;99.90;;;;;;4975265;28;20173;-65
2021/08/06 08:29:00;;;;;;;1.87;1.53;;;17.30;99.90;;;;;;4974301;28;20207;-66
2021/08/06 08:31:26;;;;;;;1.73;1.63;;;17.50;99.90;;;;;;4975174;28;20188;-65
2021/08/06 08:33:51;;;;;;;2.10;1.53;;;17.80;99.90;;;;;;4975086;28;20231;-65
2021/08/06 08:36:19;;;;;;;1.90;1.57;;;18.10;99.90;;;;;;4975258;28;20223;-66
2021/08/06 08:38:45;;;;;;;2.10;1.50;;;18.40;99.90;;;;;;4970165;28;20604;-66
2021/08/06 08:41:11;;;;;;;2.13;1.23;;;18.50;99.90;;;;;;4974703;28;20555;-66
2021/08/06 08:43:40;;;;;;;1.63;1.53;;;18.80;99.90;;;;;;4974902;28;20343;-67
2021/08/06 08:46:06;;;;;;;1.93;1.43;;;19.20;99.90;;;;;;4974940;28;20665;-66
2021/08/06 08:48:34;;;;;;;1.90;1.80;;;19.80;99.90;;;;;;4973385;28;20925;-66
2021/08/06 08:51:00;;;;;;;2.23;1.90;;;20.40;99.90;;;;;;4974429;28;20448;-66
2021/08/06 08:53:25;;;;;;;1.60;1.50;;;21.00;99.90;;;;;;4974697;28;20806;-65
2021/08/06 08:55:51;;;;;;;1.80;1.47;;;21.10;99.90;;;;;;4974716;28;20424;-66
2021/08/06 08:58:17;;;;;;;3.77;1.60;;;21.40;99.90;;;;;;4974730;28;20212;-65
2021/08/06 09:00:43;;;;;;;1.90;1.77;;;21.80;99.90;;;;;;4974408;28;20184;-65
2021/08/06 09:03:29;;;;;;;1.93;1.50;;;21.80;99.90;;;;;;4974484;28;20207;-66
2021/08/06 09:05:55;;;;;;;1.70;1.60;;;21.80;99.90;;;;;;4974214;28;20519;-65
2021/08/06 09:08:20;;;;;;;1.60;1.50;;;21.70;99.90;;;;;;4974309;28;20423;-65
2021/08/06 09:10:46;;;;;;;3.30;1.80;;;21.70;99.90;;;;;;4974082;28;20946;-66
2021/08/06 09:13:11;;;;;;;1.10;1.00;;;21.70;99.90;;;;;;4957048;28;20187;-66
2021/08/06 09:15:58;;;;;;;1.33;1.23;;;21.60;99.90;;;;;;4974369;28;20207;-65
2021/08/06 09:18:24;;;;;;;1.87;1.73;;;21.60;99.90;;;;;;4973912;28;20172;-65
2021/08/06 09:20:50;;;;;;;1.30;1.20;;;21.20;99.90;;;;;;4974214;28;20502;-66
2021/08/06 09:23:59;;;;;;;3.37;1.60;;;20.90;99.90;;;;;;4974185;28;20279;-64
2021/08/06 09:26:30;;;;;;;3.77;1.33;;;20.80;99.90;;;;;;4914392;29;20434;-65
2021/08/06 09:29:04;;;;;;;1.30;1.20;;;21.30;99.90;;;;;;4914166;29;20423;-66
2021/08/06 09:31:35;;;;;;;1.90;1.43;;;21.70;99.90;;;;;;4949496;28;20926;-66
2021/08/06 09:34:15;;;;;;;1.60;1.50;;;22.30;99.90;;;;;;4974088;28;20424;-65
2021/08/06 09:37:15;;;;;;;1.63;1.53;;;22.90;99.90;;;;;;4973920;28;20419;-65
2021/08/06 09:39:52;;;;;;;1.90;1.70;;;22.60;99.90;;;;;;4973747;28;20425;-66
2021/08/06 09:42:20;;;;;;;2.00;1.70;;;22.10;99.90;;;;;;4956358;28;20479;-66
2021/08/06 09:45:01;;;;;;;1.87;1.77;;;21.60;99.90;;;;;;4973861;28;20419;-65
2021/08/06 09:47:28;;;;;;;1.70;1.60;;;21.20;99.90;;;;;;4973796;28;20465;-66
2021/08/06 09:49:56;;;;;;;1.80;1.53;;;21.30;99.90;;;;;;4973535;28;20905;-65
2021/08/06 09:52:30;;;;;;;1.77;1.67;;;21.30;99.90;;;;;;4973550;28;20439;-66
2021/08/06 09:54:56;;;;;;;1.67;1.40;;;21.50;99.90;;;;;;4973698;28;20430;-65
2021/08/06 09:57:22;;;;;;;1.87;1.40;;;21.80;99.90;;;;;;4956347;28;20432;-66
2021/08/06 09:59:55;;;;;;;1.40;1.30;;;22.70;99.90;;;;;;4973065;28;20215;-65
2021/08/06 10:02:31;;;;;;;1.93;1.30;;;23.90;99.90;;;;;;4973367;28;20211;-66
2021/08/06 10:05:06;;;;;;;3.07;1.27;;;24.20;99.90;;;;;;4973572;28;20452;-66
2021/08/06 10:07:36;;;;;;;4.77;1.40;;;24.60;99.90;;;;;;4973493;28;20562;-66
2021/08/06 10:10:05;;;;;;;1.50;1.33;;;25.30;99.90;;;;;;4973236;28;20466;-66
2021/08/06 10:12:31;;;;;;;1.70;1.43;;;25.50;99.90;;;;;;4973536;28;20466;-65
2021/08/06 10:14:57;;;;;;;1.53;1.43;;;26.20;99.90;;;;;;4973294;28;20435;-66
2021/08/06 10:17:23;;;;;;;1.90;1.47;;;25.70;99.90;;;;;;4973368;28;20424;-65
2021/08/06 10:19:49;;;;;;;2.30;2.10;;;24.50;99.90;;;;;;4972848;28;20802;-64
2021/08/06 10:22:15;;;;;;;1.67;1.57;;;23.70;99.90;;;;;;4972469;28;20282;-64
2021/08/06 10:24:44;;;;;;;1.80;1.60;;;23.30;99.90;;;;;;4972580;28;20439;-63
2021/08/06 10:27:12;;;;;;;1.77;1.67;;;23.50;99.90;;;;;;4973008;28;20435;-65
2021/08/06 10:29:54;;;;;;;1.60;1.50;;;23.80;99.90;;;;;;4972560;28;20823;-63
2021/08/06 10:32:19;;;;;;;2.40;1.20;;;23.60;99.90;;;;;;4972625;28;20514;-63
2021/08/06 10:35:03;;;;;;;1.73;1.43;;;23.20;99.90;;;;;;4972961;28;20427;-63
2021/08/06 10:37:58;;;;;;;9.23;2.30;;;22.70;99.90;;;;;;4973088;28;20188;-63
2021/08/06 10:40:42;;;;;;;1.40;1.30;;;22.60;99.90;;;;;;4972589;28;20439;-64
2021/08/06 10:43:10;;;;;;;2.20;1.40;;;22.30;99.90;;;;;;4972382;28;20462;-64
2021/08/06 10:45:45;;;;;;;4.60;3.73;;;21.90;99.90;;;;;;4972586;28;20420;-64
2021/08/06 10:48:35;;;;;;;2.23;1.80;;;21.70;99.90;;;;;;4972338;28;20430;-63
2021/08/06 10:51:18;;;;;;;2.70;2.10;;;21.70;99.90;;;;;;4973057;28;20826;-64
2021/08/06 10:53:56;;;;;;;1.60;1.50;;;21.80;99.90;;;;;;4973101;28;20844;-63
2021/08/06 10:56:31;;;;;;;2.20;1.90;;;21.60;99.90;;;;;;4973065;28;20432;-64
2021/08/06 10:59:05;;;;;;;3.30;2.00;;;21.20;99.90;;;;;;4972913;28;20958;-64
2021/08/06 11:01:48;;;;;;;6.03;1.33;;;21.00;99.90;;;;;;4972910;28;20538;-64
2021/08/06 11:04:13;;;;;;;2.77;2.57;;;20.90;99.90;;;;;;4972852;28;20435;-64
2021/08/06 11:06:46;;;;;;;1.53;1.30;;;20.70;99.90;;;;;;4972692;28;20506;-64
2021/08/06 11:12:06;;;;;;;2.40;1.30;;;20.80;99.90;;;;;;4974631;28;20831;-64
2021/08/06 11:14:34;;;;;;;2.90;1.70;;;21.20;99.90;;;;;;4976592;28;20515;-65
2021/08/06 11:17:10;;;;;;;2.20;1.40;;;22.10;99.90;;;;;;4976357;28;20950;-64
2021/08/06 11:19:40;;;;;;;3.40;1.40;;;24.30;99.90;;;;;;4976240;28;20429;-65
2021/08/06 11:22:07;;;;;;;1.10;1.10;;;25.80;99.90;;;;;;4976307;28;20463;-65
2021/08/06 11:24:45;;;;;;;1.93;1.50;;;26.50;99.90;;;;;;4976450;28;20568;-65
2021/08/06 11:27:12;;;;;;;1.40;1.30;;;27.20;99.90;;;;;;4976738;28;20426;-65
2021/08/06 11:29:39;;;;;;;1.43;1.33;;;28.70;99.20;;;;;;4975932;28;20415;-65
2021/08/06 11:32:07;;;;;;;1.13;1.00;;;29.00;97.30;;;;;;4976222;28;20494;-65
2021/08/06 11:34:59;;;;;;;1.63;1.33;;;29.70;95.10;;;;;;4975044;28;21084;-65
2021/08/06 11:37:27;;;;;;;1.30;1.20;;;30.70;93.70;;;;;;4974770;28;20514;-66
2021/08/06 11:40:01;;;;;;;1.00;1.00;;;32.50;90.10;;;;;;4976316;28;20412;-65
2021/08/06 11:42:27;;;;;;;2.23;1.33;;;33.20;83.10;;;;;;4975704;28;20873;-65
2021/08/06 11:44:55;;;;;;;1.10;1.00;;;31.50;83.70;;;;;;4975981;28;20431;-65
2021/08/06 11:47:37;;;;;;;1.57;1.43;;;28.70;89.00;;;;;;4975630;28;20827;-65
2021/08/06 11:50:04;;;;;;;1.93;1.40;;;26.40;92.70;;;;;;4975498;28;20412;-65
2021/08/06 11:52:41;;;;;;;2.10;1.63;;;25.60;95.20;;;;;;4958271;28;20451;-65
2021/08/06 11:55:08;;;;;;;2.03;1.40;;;24.60;97.00;;;;;;4961673;28;20439;-64
2021/08/06 11:57:48;;;;;;;1.63;1.30;;;23.60;98.70;;;;;;4974873;28;20773;-66
2021/08/06 12:00:34;;;;;;;5.40;1.43;;;23.30;99.20;;;;;;4975323;28;20427;-65
2021/08/06 12:03:14;;;;;;;2.07;1.17;;;24.50;98.30;;;;;;4975327;28;20546;-65
2021/08/06 12:05:49;;;;;;;2.10;1.33;;;24.70;97.90;;;;;;4975594;28;20506;-65
2021/08/06 12:08:22;;;;;;;2.70;1.30;;;24.10;97.90;;;;;;4975452;28;20415;-65
2021/08/06 12:11:07;;;;;;;1.50;1.40;;;23.70;98.50;;;;;;4974899;28;20450;-65
2021/08/06 12:13:33;;;;;;;2.70;1.37;;;24.70;97.20;;;;;;4974219;28;20428;-65
2021/08/06 12:15:59;;;;;;;1.90;1.80;;;25.00;96.70;;;;;;4975139;28;20461;-65
2021/08/06 12:18:25;;;;;;;1.93;1.83;;;26.20;95.50;;;;;;4975155;28;20936;-64
2021/08/06 12:21:02;;;;;;;1.30;1.20;;;28.00;93.40;;;;;;4975314;28;20200;-64
2021/08/06 12:23:29;;;;;;;1.60;1.50;;;28.20;91.80;;;;;;4975242;28;20206;-64
2021/08/06 12:26:06;;;;;;;2.40;1.30;;;28.80;91.30;;;;;;4975203;28;20424;-64
2021/08/06 12:28:33;;;;;;;4.53;1.23;;;27.80;91.00;;;;;;4957811;28;20443;-66
2021/08/06 12:31:20;;;;;;;1.50;1.40;;;27.30;92.10;;;;;;4975100;28;20440;-65
2021/08/06 12:34:00;;;;;;;3.70;1.50;;;28.00;90.20;;;;;;4974975;28;20890;-64
2021/08/06 12:36:25;;;;;;;1.20;1.10;;;28.40;90.40;;;;;;4974105;28;20443;-63
2021/08/06 12:38:51;;;;;;;1.80;1.20;;;29.20;89.00;;;;;;4974625;28;20478;-64
2021/08/06 12:41:28;;;;;;;1.30;1.20;;;30.60;85.40;;;;;;4974425;28;20258;-64
2021/08/06 12:44:16;;;;;;;2.57;1.40;;;30.90;82.80;;;;;;4974769;28;20214;-64
2021/08/06 12:46:53;;;;;;;1.10;1.10;;;31.90;79.40;;;;;;4974736;28;20416;-64
2021/08/06 12:49:25;;;;;;;2.40;1.50;;;31.50;77.00;;;;;;4973962;28;20809;-64
2021/08/06 12:51:57;;;;;;;1.40;1.30;;;32.60;75.60;;;;;;4974733;28;20953;-63
2021/08/06 12:54:38;;;;;;;1.43;1.30;;;31.00;72.90;;;;;;4974688;28;20427;-64
2021/08/06 12:57:10;;;;;;;4.77;1.23;;;29.50;77.80;;;;;;4974451;28;20419;-64